Time;durP1;ratioP1;P1;durP2;ratioP2;P2;SDS_P1;SDS_P2;PMS_P1;PMS_P2;Temp;Humidity;BMP_temperature;BMP_pressure;BME280_temperature;BME280_humidity;BME280_pressure;Samples;Min_cycle;Max_cycle;Signal;HPM_P1;HPM_P2
2024/01/09 00:01:14;;;;;;;8.80;4.10;;;;;;;-144.05;48.90;57235.41;5052344;28;20492;-79
2024/01/09 00:03:40;;;;;;;6.80;3.63;;;;;;;-144.05;48.70;57222.66;5055373;28;20498;-77
2024/01/09 00:06:14;;;;;;;6.90;3.72;;;;;;;-144.05;48.47;57171.69;5053326;28;20107;-79
2024/01/09 00:08:40;;;;;;;6.97;3.88;;;;;;;-144.05;48.66;57205.66;5055562;28;20051;-79
2024/01/09 00:11:06;;;;;;;8.85;3.80;;;;;;;-144.05;48.40;57231.16;5053862;28;20029;-79
2024/01/09 00:13:32;;;;;;;9.93;4.35;;;;;;;-144.05;48.90;57233.28;5054683;28;20025;-77
2024/01/09 00:15:59;;;;;;;8.88;3.63;;;;;;;-144.05;48.31;57216.28;5052525;28;20053;-79
2024/01/09 00:18:25;;;;;;;6.72;3.90;;;;;;;-144.05;48.11;57237.53;5053404;28;20029;-80
2024/01/09 00:20:51;;;;;;;10.70;3.90;;;;;;;-144.05;48.18;57231.16;5053897;28;20025;-80
2024/01/09 00:23:17;;;;;;;6.70;3.85;;;;;;;-144.05;48.32;57222.66;5054048;28;20092;-79
2024/01/09 00:25:43;;;;;;;8.05;4.05;;;;;;;-144.05;48.16;57250.28;5052943;28;20102;-79
2024/01/09 00:28:10;;;;;;;7.88;4.00;;;;;;;-144.05;48.07;57201.44;5054148;28;20567;-80
2024/01/09 00:30:36;;;;;;;7.22;3.40;;;;;;;-144.05;47.92;57222.66;5074441;28;20036;-77
2024/01/09 00:33:02;;;;;;;8.00;4.00;;;;;;;-144.05;47.81;57246.03;5055565;28;20403;-79
2024/01/09 00:35:28;;;;;;;7.93;3.35;;;;;;;-144.05;48.06;57231.16;5054475;28;20033;-79
2024/01/09 00:37:55;;;;;;;7.57;3.72;;;;;;;-144.05;47.76;57220.53;5054788;28;20025;-79
2024/01/09 00:40:21;;;;;;;8.13;4.05;;;;;;;-144.05;48.07;57214.16;5055241;28;20025;-79
2024/01/09 00:42:47;;;;;;;7.95;3.60;;;;;;;-144.05;48.00;57235.41;5054484;28;20423;-79
2024/01/09 00:45:13;;;;;;;7.82;3.20;;;;;;;-144.05;48.21;57226.91;5054575;28;20033;-78
2024/01/09 00:47:40;;;;;;;8.82;3.72;;;;;;;-144.05;48.30;57226.91;5054532;28;20025;-79
2024/01/09 00:50:06;;;;;;;6.95;3.17;;;;;;;-144.05;47.72;57197.19;5057329;28;20067;-78
2024/01/09 00:52:32;;;;;;;8.30;3.47;;;;;;;-144.05;47.75;57243.91;5057638;28;20040;-78
2024/01/09 00:54:59;;;;;;;8.13;3.47;;;;;;;-144.05;47.34;57212.03;5072984;28;20131;-78
2024/01/09 00:57:25;;;;;;;10.55;4.28;;;;;;;-144.05;47.33;57216.28;5079957;28;20434;-79
2024/01/09 00:59:51;;;;;;;5.32;2.95;;;;;;;-144.05;47.62;57231.16;5057789;28;20028;-79
2024/01/09 01:02:17;;;;;;;6.68;3.17;;;;;;;-144.05;47.92;57246.03;5055148;28;20404;-77
2024/01/09 01:04:44;;;;;;;6.13;3.45;;;;;;;-144.05;48.24;57201.44;5054717;28;20526;-76
2024/01/09 01:07:10;;;;;;;7.40;3.60;;;;;;;-144.05;48.20;57246.03;5054957;28;20411;-79
2024/01/09 01:09:37;;;;;;;7.53;3.63;;;;;;;-144.05;48.42;57214.16;5055583;28;20075;-79
2024/01/09 01:12:04;;;;;;;5.25;3.00;;;;;;;-144.05;48.24;57207.78;5055870;28;20029;-79
2024/01/09 01:14:30;;;;;;;8.07;3.65;;;;;;;-144.05;47.65;57197.19;5055777;28;20063;-78
2024/01/09 01:16:56;;;;;;;8.38;3.58;;;;;;;-144.05;48.01;57250.28;5056291;28;20060;-77
2024/01/09 01:19:22;;;;;;;6.95;3.40;;;;;;;-144.05;47.70;57235.41;5055484;28;20032;-78
2024/01/09 01:21:48;;;;;;;7.47;3.80;;;;;;;-144.05;47.71;57226.91;5055316;28;20029;-78
2024/01/09 01:24:15;;;;;;;6.43;3.30;;;;;;;-144.05;47.62;57220.53;5056572;28;20481;-79
2024/01/09 01:26:41;;;;;;;7.35;3.88;;;;;;;-144.05;47.94;57216.28;5054442;28;20024;-79
2024/01/09 01:29:07;;;;;;;8.00;3.40;;;;;;;-144.05;47.56;57205.66;5056596;28;20127;-78
2024/01/09 01:31:33;;;;;;;8.07;3.80;;;;;;;-144.05;47.62;57233.28;5054645;28;20039;-79
2024/01/09 01:33:59;;;;;;;7.38;3.47;;;;;;;-144.05;48.08;57178.06;5055893;28;20052;-77
2024/01/09 01:36:26;;;;;;;8.32;3.75;;;;;;;-144.05;48.35;57224.78;5054186;28;20069;-79
2024/01/09 01:38:52;;;;;;;14.43;3.20;;;;;;;-144.05;47.53;57226.91;5055066;28;20033;-77
2024/01/09 01:41:18;;;;;;;8.65;3.50;;;;;;;-144.05;48.35;57205.66;5054490;28;20032;-76
2024/01/09 01:43:44;;;;;;;7.88;3.58;;;;;;;-144.05;48.21;57248.16;5069247;28;20032;-77
2024/01/09 01:46:11;;;;;;;8.07;2.83;;;;;;;-144.05;48.30;57209.91;5053551;28;20174;-79
2024/01/09 01:48:38;;;;;;;7.78;3.78;;;;;;;-144.05;47.94;57237.53;5054456;28;20044;-78
2024/01/09 01:51:06;;;;;;;4.72;3.10;;;;;;;-144.05;48.08;57235.41;5055570;28;20069;-77
2024/01/09 01:53:33;;;;;;;8.30;3.67;;;;;;;-144.05;47.69;57239.66;5058957;28;20031;-78
2024/01/09 01:56:01;;;;;;;7.63;3.83;;;-4.80;99.90;;;-144.05;47.93;57237.53;5060155;28;20033;-78
2024/01/09 01:58:29;;;;;;;6.28;3.75;;;;;;;-144.05;48.44;57220.53;5062630;28;20060;-78
2024/01/09 02:00:56;;;;;;;9.20;4.07;;;;;;;-144.05;47.96;57199.31;5057585;28;20517;-79
2024/01/09 02:03:22;;;;;;;5.40;3.28;;;;;;;-144.05;48.54;57201.44;5056028;28;20062;-79
2024/01/09 02:05:49;;;;;;;6.60;3.15;;;;;;;-144.05;48.78;57241.78;5055883;28;20406;-77
2024/01/09 02:08:19;;;;;;;12.57;4.22;;;;;;;-144.05;48.53;57222.66;5054919;28;20062;-78
2024/01/09 02:10:45;;;;;;;9.23;3.88;;;;;;;-144.05;48.53;57192.94;5049610;28;20033;-77
2024/01/09 02:13:12;;;;;;;7.05;3.88;;;-4.30;99.90;;;-144.05;48.92;57235.41;5054444;28;20470;-79
2024/01/09 02:15:39;;;;;;;8.10;3.97;;;;;;;-144.05;48.87;57212.03;5052892;28;20068;-80
2024/01/09 02:18:05;;;;;;;6.72;3.63;;;;;;;-144.05;48.89;57235.41;5053737;28;20040;-79
2024/01/09 02:20:31;;;;;;;6.18;3.13;;;;;;;-144.05;48.76;57209.91;5054904;28;20473;-79
2024/01/09 02:22:57;;;;;;;8.18;3.60;;;;;;;-144.05;48.98;57235.41;5054807;28;20029;-79
2024/01/09 02:25:24;;;;;;;7.63;3.50;;;;;;;-144.05;49.63;57248.16;5055155;28;20029;-79
2024/01/09 02:28:18;;;;;;;5.75;3.60;;;;;;;-144.05;49.68;57220.53;5057282;28;20025;-77
2024/01/09 02:30:46;;;;;;;6.30;3.40;;;;;;;-144.05;49.15;57218.41;5069840;28;20418;-79
2024/01/09 02:33:14;;;;;;;6.65;3.70;;;;;;;-144.05;49.56;57216.28;5053064;28;20036;-79
2024/01/09 02:35:40;;;;;;;7.85;3.65;;;;;;;-144.05;49.72;57188.69;5069367;28;20025;-79
2024/01/09 02:38:06;;;;;;;6.35;3.45;;;;;;;-144.05;49.71;57222.66;5054693;28;20052;-79
2024/01/09 02:40:32;;;;;;;9.90;4.63;;;;;;;-144.05;50.05;57220.53;5055428;28;20096;-79
2024/01/09 02:42:59;;;;;;;8.88;4.10;;;;;;;-144.05;50.08;57226.91;5054450;28;20021;-79
2024/01/09 02:45:25;;;;;;;10.00;4.45;;;;;;;-144.05;50.40;57237.53;5053457;28;20127;-79
2024/01/09 02:47:51;;;;;;;7.82;3.75;;;;;;;-144.05;50.01;57214.16;5054068;28;20429;-77
2024/01/09 02:50:20;;;;;;;9.10;4.00;;;;;;;-144.05;49.71;57209.91;5054273;28;20060;-79
2024/01/09 02:52:47;;;;;;;7.35;3.67;;;;;;;-144.05;49.95;57192.94;5053683;28;20052;-79
2024/01/09 02:55:13;;;;;;;8.43;3.70;;;;;;;-144.05;49.68;57231.16;5053701;28;20429;-78
2024/01/09 02:57:40;;;;;;;7.47;3.60;;;;;;;-144.05;50.13;57209.91;5054242;28;20032;-80
2024/01/09 03:00:11;;;;;;;7.25;3.70;;;-4.30;99.90;;;-144.05;50.19;57252.41;5055467;28;20035;-79
2024/01/09 03:02:38;;;;;;;9.75;3.80;;;;;;;-144.05;51.01;57241.78;5053392;28;20021;-79
2024/01/09 03:05:07;;;;;;;7.18;3.97;;;-8.60;99.90;;;-144.05;50.68;57226.91;5053279;28;20060;-79
2024/01/09 03:07:34;;;;;;;6.65;3.70;;;;;;;-144.05;50.61;57214.16;5053604;28;20037;-79
2024/01/09 03:10:01;;;;;;;7.55;3.97;;;;;;;-144.05;50.77;57203.56;5054302;28;20064;-79
2024/01/09 03:12:28;;;;;;;7.95;4.15;;;;;;;-144.05;51.01;57239.66;5052652;28;20025;-80
2024/01/09 03:14:55;;;;;;;10.80;4.35;;;;;;;-144.05;50.70;57214.16;5068978;28;20116;-79
2024/01/09 03:17:21;;;;;;;8.65;4.00;;;;;;;-144.05;50.89;57224.78;5069555;28;20092;-80
2024/01/09 03:19:48;;;;;;;8.85;3.95;;;;;;;-144.05;50.49;57224.78;5053928;28;20149;-78
2024/01/09 03:22:14;;;;;;;10.73;4.05;;;;;;;-144.05;50.73;57209.91;5052909;28;20029;-79
2024/01/09 03:24:40;;;;;;;11.65;4.15;;;;;;;-144.05;51.12;57199.31;5052456;28;20045;-79
2024/01/09 03:27:06;;;;;;;7.70;3.92;;;;;;;-144.05;50.74;57224.78;5053163;28;20052;-78
2024/01/09 03:29:32;;;;;;;9.82;4.25;;;;;;;-144.05;50.15;57235.41;5052311;28;20112;-77
2024/01/09 03:31:59;;;;;;;7.97;3.97;;;-5.30;99.90;;;-144.05;50.56;57243.91;5053238;28;20158;-79
2024/01/09 03:34:25;;;;;;;6.38;3.45;;;;;;;-144.05;50.64;57235.41;5053749;28;20033;-78
2024/01/09 03:36:51;;;;;;;11.23;4.32;;;;;;;-144.05;50.87;57192.94;5053512;28;20537;-78
2024/01/09 03:39:18;;;;;;;8.93;4.35;;;;;;;-144.05;51.28;57229.03;5055002;28;20062;-80
2024/01/09 03:41:44;;;;;;;6.50;3.97;;;;;;;-144.05;51.01;57209.91;5053302;28;20093;-78
2024/01/09 03:44:12;;;;;;;11.60;3.90;;;;;;;-144.05;51.18;57248.16;5054397;28;20036;-78
2024/01/09 03:46:38;;;;;;;9.43;4.53;;;;;;;-144.05;51.05;57226.91;5054339;28;20037;-78
2024/01/09 03:49:05;;;;;;;9.98;4.50;;;;;;;-144.05;51.13;57212.03;5054949;28;20158;-79
2024/01/09 03:51:31;;;;;;;7.35;4.05;;;;;;;-144.05;50.92;57214.16;5053884;28;20135;-80
2024/01/09 03:53:57;;;;;;;10.45;4.55;;;;;;;-144.05;50.89;57241.78;5053770;28;20478;-78
2024/01/09 03:56:26;;;;;;;8.23;4.40;;;;;;;-144.05;50.95;57209.91;5054083;28;20029;-79
2024/01/09 03:58:53;;;;;;;10.65;4.68;;;;;;;-144.05;51.24;57224.78;5055511;28;20033;-79
2024/01/09 04:01:19;;;;;;;9.95;4.68;;;;;;;-144.05;51.72;57218.41;5055366;28;20056;-79
2024/01/09 04:03:46;;;;;;;12.15;4.22;;;;;;;-144.05;51.55;57192.94;5055469;28;20475;-79
2024/01/09 04:06:12;;;;;;;10.23;4.45;;;;;;;-144.05;50.84;57243.91;5055672;28;20025;-78
2024/01/09 04:08:38;;;;;;;8.55;4.32;;;;;;;-144.05;51.11;57239.66;5054142;28;20057;-79
2024/01/09 04:11:05;;;;;;;11.93;4.75;;;;;;;-144.05;51.40;57258.78;5055107;28;20039;-80
2024/01/09 04:13:31;;;;;;;9.60;4.97;;;;;;;-144.05;51.08;57220.53;5055428;28;20025;-78
2024/01/09 04:15:57;;;;;;;10.30;4.55;;;;;;;-144.05;51.41;57214.16;5054766;28;20024;-79
2024/01/09 04:18:24;;;;;;;8.68;4.53;;;;;;;-144.05;51.49;57214.16;5054628;28;20054;-80
2024/01/09 04:20:50;;;;;;;10.27;4.82;;;;;;;-144.05;51.54;57226.91;5055187;28;20036;-79
2024/01/09 04:23:16;;;;;;;11.13;4.75;;;;;;;-144.05;51.50;57233.28;5057883;28;20394;-80
2024/01/09 04:25:42;;;;;;;7.22;4.10;;;;;;;-144.05;51.08;57241.78;5078163;28;20452;-79
2024/01/09 04:28:09;;;;;;;10.23;4.20;;;;;;;-144.05;51.28;57226.91;5060516;28;20541;-80
2024/01/09 04:30:35;;;;;;;10.45;3.55;;;;;;;-144.05;51.99;57226.91;5058828;28;20358;-79
2024/01/09 04:33:01;;;;;;;9.20;4.85;;;;;;;-144.05;51.56;57243.91;5058472;28;20102;-80
2024/01/09 04:35:27;;;;;;;9.18;4.15;;;;;;;-144.05;51.19;57243.91;5057016;28;20025;-78
2024/01/09 04:37:54;;;;;;;7.15;4.13;;;;;;;-144.05;51.20;57231.16;5059066;28;20120;-77
2024/01/09 04:40:20;;;;;;;8.52;4.57;;;;;;;-144.05;50.68;57222.66;5059886;28;20087;-80
2024/01/09 04:42:46;;;;;;;9.43;4.60;;;;;;;-144.05;50.27;57258.78;5057210;28;20025;-79
2024/01/09 04:45:13;;;;;;;9.70;4.90;;;;;;;-144.05;50.99;57256.66;5073093;28;20029;-78
2024/01/09 04:47:39;;;;;;;7.95;4.55;;;;;;;-144.05;50.98;57222.66;5063505;28;20025;-80
2024/01/09 04:50:06;;;;;;;10.77;4.40;;;;;;;-144.05;50.77;57209.91;5056650;28;20591;-77
2024/01/09 04:52:32;;;;;;;11.38;4.65;;;;;;;-144.05;51.25;57248.16;5056459;28;20040;-78
2024/01/09 04:54:59;;;;;;;9.70;4.68;;;;;;;-144.05;51.32;57216.28;5057145;28;20029;-77
2024/01/09 04:57:25;;;;;;;13.45;4.97;;;;;;;-144.05;51.30;57243.91;5055453;28;20120;-78
2024/01/09 04:59:51;;;;;;;12.15;5.70;;;;;;;-144.05;51.32;57192.94;5056678;28;20052;-78
2024/01/09 05:02:17;;;;;;;9.20;5.03;;;;;;;-144.05;50.97;57229.03;5057259;28;20136;-78
2024/01/09 05:04:44;;;;;;;11.82;4.97;;;;;;;-144.05;51.01;57243.91;5068791;28;20060;-79
2024/01/09 05:07:10;;;;;;;8.60;4.53;;;;;;;-144.05;51.15;57231.16;5057264;28;20028;-78
2024/01/09 05:09:36;;;;;;;12.60;5.68;;;;;;;-144.05;51.64;57271.53;5056772;28;20028;-77
2024/01/09 05:12:02;;;;;;;9.52;4.85;;;;;;;-144.05;51.61;57282.16;5055394;28;20037;-76
2024/01/09 05:14:29;;;;;;;7.47;4.07;;;;;;;-144.05;51.03;57218.41;5057657;28;20040;-77
2024/01/09 05:16:55;;;;;;;12.38;5.25;;;;;;;-144.05;51.24;57252.41;5057005;28;20082;-76
2024/01/09 05:19:21;;;;;;;7.70;4.88;;;;;;;-144.05;51.54;57237.53;5057943;28;20033;-76
2024/01/09 05:21:48;;;;;;;8.40;4.95;;;;;;;-144.05;51.13;57192.94;5057834;28;20497;-78
2024/01/09 05:24:14;;;;;;;10.52;4.72;;;;;;;-144.05;51.64;57226.91;5058258;28;20029;-79
2024/01/09 05:26:41;;;;;;;11.05;5.43;;;;;;;-144.05;51.34;57254.53;5056273;28;20047;-78
2024/01/09 05:29:07;;;;;;;11.10;5.50;;;;;;;-144.05;51.37;57218.41;5057918;28;20162;-76
2024/01/09 05:31:33;;;;;;;11.48;4.90;;;;;;;-144.05;51.25;57250.28;5056532;28;20521;-77
2024/01/09 05:33:59;;;;;;;12.15;5.50;;;;;;;-144.05;51.06;57233.28;5056550;28;20150;-77
2024/01/09 05:36:26;;;;;;;10.32;5.00;;;;;;;-144.05;52.08;57231.16;5055782;28;20024;-77
2024/01/09 05:38:52;;;;;;;10.02;4.80;;;;;;;-144.05;52.14;57222.66;5056649;28;20091;-79
2024/01/09 05:41:27;;;;;;;11.45;4.95;;;;;;;-144.05;51.95;57237.53;5055566;28;20594;-76
2024/01/09 05:43:53;;;;;;;12.07;4.88;;;;;;;-144.05;51.50;57258.78;5056413;28;20025;-77
2024/01/09 05:46:20;;;;;;;14.35;5.20;;;;;;;-144.05;51.85;57248.16;5056847;28;20059;-80
2024/01/09 05:48:47;;;;;;;12.75;5.10;;;-8.00;99.90;;;-144.05;51.35;57214.16;5056760;28;20025;-78
2024/01/09 05:51:14;;;;;;;9.05;4.80;;;;;;;-144.05;51.44;57218.41;5057705;28;20029;-77
2024/01/09 05:53:40;;;;;;;10.40;4.43;;;;;;;-144.05;51.54;57258.78;5074328;28;20025;-77
2024/01/09 05:56:07;;;;;;;9.70;4.65;;;;;;;-144.05;52.38;57260.91;5056366;28;20066;-78
2024/01/09 05:58:33;;;;;;;9.50;4.32;;;;;;;-144.05;51.93;57229.03;5054169;28;20025;-78
2024/01/09 06:01:00;;;;;;;11.05;5.53;;;;;;;-144.05;52.49;57239.66;5056394;28;20017;-76
2024/01/09 06:03:26;;;;;;;10.98;5.13;;;;;;;-144.05;52.05;57205.66;5056345;28;20081;-77
2024/01/09 06:05:53;;;;;;;13.30;5.97;;;;;;;-144.05;52.10;57239.66;5056483;28;20036;-77
2024/01/09 06:08:19;;;;;;;9.60;4.50;;;;;;;-144.05;52.39;57231.16;5058161;28;20040;-77
2024/01/09 06:10:47;;;;;;;11.40;5.30;;;;;;;-144.05;51.96;57197.19;5074209;28;20021;-77
2024/01/09 06:13:13;;;;;;;10.43;4.47;;;;;;;-144.05;51.53;57250.28;5058460;28;20119;-80
2024/01/09 06:15:39;;;;;;;9.13;4.85;;;;;;;-144.05;51.71;57226.91;5057220;28;20063;-77
2024/01/09 06:18:07;;;;;;;9.77;5.45;;;;;;;-144.05;51.68;57233.28;5055540;28;20031;-76
2024/01/09 06:20:33;;;;;;;9.57;5.00;;;;;;;-144.05;51.79;57239.66;5056752;28;20025;-77
2024/01/09 06:22:59;;;;;;;8.63;4.70;;;;;;;-144.05;52.42;57243.91;5056281;28;20275;-77
2024/01/09 06:25:25;;;;;;;11.27;4.90;;;;;;;-144.05;52.18;57241.78;5057032;28;20083;-77
2024/01/09 06:27:52;;;;;;;10.65;5.47;;;;;;;-144.05;52.18;57224.78;5073915;28;20029;-76
2024/01/09 06:30:18;;;;;;;9.80;5.10;;;;;;;-144.05;52.74;57233.28;5070662;28;20079;-77
2024/01/09 06:32:44;;;;;;;15.10;5.95;;;;;;;-144.05;52.07;57243.91;5050378;28;20086;-77
2024/01/09 06:35:10;;;;;;;10.18;5.25;;;;;;;-144.05;51.86;57243.91;5058956;28;20035;-78
2024/01/09 06:37:37;;;;;;;9.02;5.13;;;;;;;-144.05;52.53;57252.41;5073988;28;20036;-76
2024/01/09 06:40:04;;;;;;;12.07;5.10;;;;;;;-144.05;52.36;57254.53;5056752;28;20096;-78
2024/01/09 06:42:30;;;;;;;11.10;5.57;;;;;;;-144.05;52.27;57252.41;5057128;28;20036;-75
2024/01/09 06:44:56;;;;;;;11.35;6.15;;;;;;;-144.05;51.84;57258.78;5056736;28;20336;-76
2024/01/09 06:47:22;;;;;;;11.88;5.75;;;;;;;-144.05;52.24;57220.53;5059218;28;20028;-78
2024/01/09 06:49:49;;;;;;;9.95;5.40;;;;;;;-144.05;52.00;57226.91;5072593;28;20132;-78
2024/01/09 06:52:15;;;;;;;13.25;5.28;;;;;;;-144.05;52.38;57239.66;5058565;28;20033;-78
2024/01/09 06:54:41;;;;;;;12.55;5.28;;;;;;;-144.05;52.43;57248.16;5058342;28;20091;-76
2024/01/09 06:57:08;;;;;;;12.45;5.93;;;;;;;-144.05;51.92;57239.66;5056336;28;20025;-77
2024/01/09 06:59:34;;;;;;;12.20;5.78;;;;;;;-144.05;51.69;57212.03;5055354;28;20032;-77
2024/01/09 07:02:01;;;;;;;12.68;6.35;;;;;;;-144.05;52.10;57243.91;5056646;28;20088;-78
2024/01/09 07:04:27;;;;;;;10.38;5.88;;;;;;;-144.05;52.46;57229.03;5061723;28;20401;-76
2024/01/09 07:06:53;;;;;;;12.13;6.03;;;;;;;-144.05;52.44;57212.03;5058597;28;20564;-79
2024/01/09 07:09:20;;;;;;;9.98;5.13;;;;;;;-144.05;51.89;57243.91;5066020;28;20031;-75
2024/01/09 07:11:47;;;;;;;10.85;5.95;;;;;;;-144.05;52.13;57188.69;5064977;28;20489;-76
2024/01/09 07:14:13;;;;;;;11.60;5.85;;;;;;;-144.05;51.42;57188.69;5055473;28;20031;-74
2024/01/09 07:16:39;;;;;;;12.25;6.00;;;;;;;-144.05;51.83;57231.16;5057088;28;20033;-77
2024/01/09 07:19:05;;;;;;;11.30;5.25;;;;;;;-144.05;51.93;57222.66;5056958;28;20029;-78
2024/01/09 07:21:31;;;;;;;14.15;7.38;;;;;;;-144.05;51.83;57233.28;5057047;28;20025;-77
2024/01/09 07:23:58;;;;;;;12.48;6.13;;;;;;;-144.05;52.08;57231.16;5056481;28;20036;-79
2024/01/09 07:26:24;;;;;;;13.13;6.45;;;;;;;-144.05;51.95;57224.78;5057751;28;20029;-77
2024/01/09 07:28:50;;;;;;;13.35;6.03;;;;;;;-144.05;51.45;57209.91;5056734;28;20110;-77
2024/01/09 07:31:16;;;;;;;13.23;5.75;;;;;;;-144.05;51.84;57214.16;5056987;28;20025;-77
2024/01/09 07:33:43;;;;;;;12.80;5.07;;;;;;;-144.05;51.65;57218.41;5056324;28;20102;-78
2024/01/09 07:36:09;;;;;;;15.05;5.63;;;;;;;-144.05;52.08;57229.03;5057842;28;20029;-76
2024/01/09 07:38:35;;;;;;;15.20;6.05;;;;;;;-144.05;52.02;57229.03;5057157;28;20033;-77
2024/01/09 07:41:02;;;;;;;11.43;6.50;;;;;;;-144.05;52.38;57214.16;5072230;28;20065;-76
2024/01/09 07:43:29;;;;;;;12.70;6.07;;;;;;;-144.05;52.08;57220.53;5057705;28;20108;-76
2024/01/09 07:45:55;;;;;;;12.07;5.22;;;;;;;-144.05;52.05;57186.56;5081838;28;20057;-77
2024/01/09 07:48:22;;;;;;;11.02;5.63;;;;;;;-144.05;52.03;57241.78;5067095;28;20478;-76
2024/01/09 07:50:48;;;;;;;12.98;6.03;;;;;;;-144.05;52.03;57186.56;5066917;28;20048;-80
2024/01/09 07:53:14;;;;;;;11.07;5.80;;;;;;;-144.05;51.25;57188.69;5066547;28;20032;-76
2024/01/09 07:55:40;;;;;;;10.70;5.55;;;;;;;-144.05;51.24;57207.78;5065569;28;20450;-77
2024/01/09 07:58:07;;;;;;;14.13;5.53;;;;;;;-144.05;51.47;57248.16;5064611;28;20067;-76
2024/01/09 08:00:33;;;;;;;16.58;6.72;;;;;;;-144.05;50.82;57231.16;5064149;28;20029;-77
2024/01/09 08:02:59;;;;;;;12.77;6.35;;;;;;;-144.05;50.85;57207.78;5055295;28;20036;-75
2024/01/09 08:05:27;;;;;;;15.55;6.20;;;-4.40;99.90;;;-144.05;50.57;57222.66;5065228;28;20036;-76
2024/01/09 08:07:53;;;;;;;11.88;5.55;;;;;;;-144.05;50.17;57209.91;5063554;28;20029;-76
2024/01/09 08:10:21;;;;;;;13.38;5.88;;;;;;;-144.05;49.57;57197.19;5083730;28;20048;-78
2024/01/09 08:12:47;;;;;;;8.50;5.05;;;;;;;-144.05;49.47;57212.03;5063477;28;20526;-77
2024/01/09 08:15:13;;;;;;;11.73;5.55;;;;;;;-144.05;49.54;57209.91;5057448;28;20519;-76
2024/01/09 08:17:40;;;;;;;15.52;5.13;;;;;;;-144.05;49.30;57233.28;5056991;28;20048;-77
2024/01/09 08:20:07;;;;;;;14.40;6.10;;;;;;;-144.05;49.43;57197.19;5054207;28;20017;-76
2024/01/09 08:22:33;;;;;;;11.38;5.63;;;;;;;-144.05;48.57;57207.78;5053792;28;20037;-78
2024/01/09 08:25:00;;;;;;;13.98;7.20;;;;;;;-144.05;48.36;57231.16;5068722;28;20077;-76
2024/01/09 08:27:26;;;;;;;10.77;5.22;;;;;;;-144.05;47.45;57190.81;5053142;28;20025;-75
2024/01/09 08:29:53;;;;;;;13.23;5.93;;;;;;;-144.05;47.54;57224.78;5055040;28;20017;-78
2024/01/09 08:32:19;;;;;;;9.48;5.18;;;;;;;-144.05;46.69;57178.06;5057956;28;20036;-77
2024/01/09 08:34:45;;;;;;;10.45;5.30;;;;;;;-144.05;46.57;57205.66;5072413;28;20036;-78
2024/01/09 08:37:11;;;;;;;11.90;5.45;;;;;;;-144.05;47.21;57182.31;5057014;28;20021;-76
2024/01/09 08:39:38;;;;;;;13.13;5.30;;;;;;;-144.05;46.44;57205.66;5057627;28;20156;-78
2024/01/09 08:42:04;;;;;;;11.27;6.10;;;;;;;-144.05;45.81;57158.94;5054461;28;20025;-77
2024/01/09 08:44:30;;;;;;;10.73;5.35;;;;;;;-144.05;45.39;57156.81;5055736;28;20037;-77
2024/01/09 08:46:57;;;;;;;12.93;6.07;;;;;;;-144.05;44.34;57127.09;5055706;28;20029;-77
2024/01/09 08:49:23;;;;;;;10.00;5.22;;;;;;;-144.05;44.45;57141.94;5054512;28;20048;-77
2024/01/09 08:51:49;;;;;;;10.85;5.55;;;;;;;-144.05;44.17;57154.69;5056235;28;20057;-78
2024/01/09 08:54:15;;;;;;;12.70;5.38;;;;;;;-144.05;44.11;57195.06;5056784;28;20418;-78
2024/01/09 08:56:42;;;;;;;10.20;5.47;;;;;;;-144.05;43.75;57205.66;5079605;28;20071;-76
2024/01/09 08:59:09;;;;;;;9.45;5.40;;;;;;;-144.05;43.22;57184.44;5055979;28;20020;-77
2024/01/09 09:01:38;;;;;;;12.73;6.00;;;;;;;-144.05;43.60;57135.56;5053420;28;20043;-77
2024/01/09 09:04:04;;;;;;;10.35;5.82;;;;;;;-144.05;42.75;57182.31;5087579;28;20029;-77
2024/01/09 09:06:31;;;;;;;11.75;5.70;;;;;;;-144.05;43.22;57197.19;5056045;28;20060;-78
2024/01/09 09:08:57;;;;;;;12.13;5.18;;;;;;;-144.05;42.75;57186.56;5054672;28;20074;-77
2024/01/09 09:11:24;;;;;;;12.32;6.28;;;;;;;-144.05;41.89;57173.81;5059290;28;20033;-77
2024/01/09 09:13:50;;;;;;;9.60;5.60;;;;;;;-144.05;42.52;57152.56;5058967;28;20026;-78
2024/01/09 09:16:18;;;;;;;8.90;4.60;;;-3.40;99.90;;;-144.05;43.05;57150.44;5059145;28;20028;-77
2024/01/09 09:18:44;;;;;;;9.35;5.13;;;;;;;-144.05;41.75;57141.94;5060105;28;20036;-79
2024/01/09 09:21:12;;;;;;;11.80;5.40;;;;;;;-144.05;41.67;57135.56;5066281;28;20029;-76
2024/01/09 09:23:39;;;;;;;11.77;6.80;;;;;;;-144.05;41.73;57133.44;5060933;28;20131;-76
2024/01/09 09:26:05;;;;;;;9.27;4.88;;;;;;;-144.05;42.53;57150.44;5060152;28;20036;-77
2024/01/09 09:28:32;;;;;;;8.88;5.50;;;;;;;-144.05;41.52;57169.56;5091797;28;20029;-78
2024/01/09 09:30:58;;;;;;;9.82;5.43;;;;;;;-144.05;41.35;57152.56;5061050;28;20031;-78
2024/01/09 09:33:28;;;;;;;10.30;4.97;;;;;;;-144.05;41.07;57118.59;5061044;28;20036;-76
2024/01/09 09:35:55;;;;;;;8.23;4.72;;;-2.60;99.90;;;-144.05;40.20;57163.19;5059996;28;20143;-75
2024/01/09 09:38:22;;;;;;;8.98;4.50;;;;;;;-144.05;39.91;57163.19;5060456;28;20033;-77
2024/01/09 09:40:49;;;;;;;10.77;5.32;;;;;;;-144.05;39.95;57133.44;5060718;28;20028;-76
2024/01/09 09:43:24;;;;;;;10.07;5.40;;;-2.50;99.90;;;-144.05;39.84;57122.84;5060607;28;20426;-76
2024/01/09 09:45:58;;;;;;;8.20;4.32;;;-2.10;99.90;;;-144.05;40.12;57152.56;5053344;28;20028;-77
2024/01/09 09:48:25;;;;;;;10.35;5.57;;;-2.50;99.90;;;-144.05;39.81;57122.84;5059061;28;20090;-74
2024/01/09 09:50:55;;;;;;;9.20;5.47;;;-2.30;99.90;;;-144.05;39.11;57093.09;5059982;28;20029;-77
2024/01/09 09:53:24;;;;;;;9.60;4.40;;;-2.20;99.90;;;-144.05;38.21;57124.97;5059882;28;20490;-76
2024/01/09 09:55:53;;;;;;;10.85;4.40;;;-2.00;99.90;;;-144.05;38.28;57137.69;5074830;28;20048;-76
2024/01/09 09:58:20;;;;;;;11.20;5.15;;;;;;;-144.05;38.36;57135.56;5075188;28;20025;-76
2024/01/09 10:00:46;;;;;;;9.40;4.82;;;;;;;-144.05;37.98;57069.72;5059712;28;20021;-77
2024/01/09 10:03:18;;;;;;;8.45;4.82;;;-1.90;99.90;;;-144.05;38.15;57146.19;5075007;28;20031;-78
2024/01/09 10:05:46;;;;;;;9.82;4.95;;;-1.80;99.90;;;-144.05;37.80;57137.69;5092504;28;20055;-78
2024/01/09 10:08:17;;;;;;;8.10;4.30;;;-1.90;99.90;;;-144.05;38.18;57116.47;5059699;28;20463;-75
2024/01/09 10:10:43;;;;;;;13.02;4.93;;;;;;;-144.05;37.75;57120.72;5059991;28;20029;-77
2024/01/09 10:13:10;;;;;;;9.52;4.82;;;;;;;-144.05;37.73;57103.72;5059754;28;20017;-77
2024/01/09 10:15:57;;;;;;;10.73;4.75;;;-1.70;99.90;;;-144.05;37.58;57144.06;5059983;28;20025;-77
2024/01/09 10:18:28;;;;;;;10.20;4.68;;;;;;;-144.05;37.32;57112.22;5060689;28;20029;-77
2024/01/09 10:20:55;;;;;;;10.13;5.50;;;;;;;-144.05;37.25;57122.84;5059735;28;20362;-78
2024/01/09 10:23:21;;;;;;;8.68;4.47;;;;;;;-144.05;37.65;57084.59;5058672;28;20116;-77
2024/01/09 10:25:48;;;;;;;11.18;5.25;;;;;;;-144.05;37.16;57122.84;5059923;28;20416;-77
2024/01/09 10:28:17;;;;;;;9.45;4.32;;;-1.80;99.90;;;-144.05;38.39;57122.84;5061290;28;20021;-79
2024/01/09 10:30:44;;;;;;;6.15;4.05;;;;;;;-144.05;37.86;57112.22;5060880;28;20044;-78
2024/01/09 10:33:12;;;;;;;8.95;4.30;;;-2.20;99.90;;;-144.05;37.65;57163.19;5060826;28;20039;-78
2024/01/09 10:35:38;;;;;;;9.18;4.35;;;;;;;-144.05;37.27;57093.09;5060399;28;20028;-78
2024/01/09 10:38:05;;;;;;;8.35;4.60;;;;;;;-144.05;36.64;57103.72;5059359;28;20035;-78
2024/01/09 10:40:31;;;;;;;11.07;4.88;;;;;;;-144.05;36.24;57093.09;5058010;28;20398;-77
2024/01/09 10:42:57;;;;;;;8.30;4.63;;;;;;;-144.05;36.09;57122.84;5059610;28;20029;-77
2024/01/09 10:45:26;;;;;;;8.45;4.82;;;;;;;-144.05;35.64;57120.72;5060440;28;20033;-76
2024/01/09 10:47:53;;;;;;;8.80;4.60;;;-1.20;98.70;;;-144.05;35.99;57105.84;5059615;28;20025;-76
2024/01/09 10:50:24;;;;;;;8.38;4.53;;;-1.20;98.20;;;-144.05;36.27;57122.84;5060431;28;20406;-76
2024/01/09 10:52:51;;;;;;;10.85;4.68;;;;;;;-144.05;35.49;57093.09;5070781;28;20029;-79
2024/01/09 10:55:23;;;;;;;10.60;4.57;;;;;;;-144.05;35.49;57133.44;5060392;28;20036;-77
2024/01/09 10:57:50;;;;;;;9.00;4.28;;;;;;;-144.05;36.20;57135.56;5060096;28;20024;-78
2024/01/09 11:00:18;;;;;;;10.32;4.40;;;;;;;-144.05;36.58;57154.69;5061189;28;20079;-77
2024/01/09 11:02:44;;;;;;;7.97;4.35;;;;;;;-144.05;35.95;57127.09;5059938;28;20144;-77
2024/01/09 11:05:12;;;;;;;11.27;4.30;;;;;;;-144.05;35.96;57110.09;5059587;28;20402;-76